sensor_id;sensor_type;location;lat;lon;timestamp;temperature;humidity
65040;HTU21D;51606;45.000;38.612;2023-03-23T00:01:36;6.54;78.75
65040;HTU21D;51606;45.000;38.612;2023-03-23T00:04:03;6.52;78.79
65040;HTU21D;51606;45.000;38.612;2023-03-23T00:06:29;6.50;78.87
65040;HTU21D;51606;45.000;38.612;2023-03-23T00:08:58;6.46;78.88
65040;HTU21D;51606;45.000;38.612;2023-03-23T00:11:28;6.46;78.93
65040;HTU21D;51606;45.000;38.612;2023-03-23T00:13:56;6.45;78.94
65040;HTU21D;51606;45.000;38.612;2023-03-23T00:16:29;6.45;78.92
65040;HTU21D;51606;45.000;38.612;2023-03-23T00:19:09;6.48;78.91
65040;HTU21D;51606;45.000;38.612;2023-03-23T00:21:37;6.46;78.85
65040;HTU21D;51606;45.000;38.612;2023-03-23T00:24:15;6.43;78.86
65040;HTU21D;51606;45.000;38.612;2023-03-23T00:26:47;6.41;78.91
65040;HTU21D;51606;45.000;38.612;2023-03-23T00:29:20;6.39;78.96
65040;HTU21D;51606;45.000;38.612;2023-03-23T00:31:50;6.37;79.00
65040;HTU21D;51606;45.000;38.612;2023-03-23T00:34:21;6.37;79.00
65040;HTU21D;51606;45.000;38.612;2023-03-23T00:36:52;6.35;79.01
65040;HTU21D;51606;45.000;38.612;2023-03-23T00:39:23;6.33;79.03
65040;HTU21D;51606;45.000;38.612;2023-03-23T00:41:53;6.30;79.06
65040;HTU21D;51606;45.000;38.612;2023-03-23T00:44:28;6.30;79.09
65040;HTU21D;51606;45.000;38.612;2023-03-23T00:46:54;6.26;79.13
65040;HTU21D;51606;45.000;38.612;2023-03-23T00:49:23;6.27;79.13
65040;HTU21D;51606;45.000;38.612;2023-03-23T00:51:55;6.26;79.13
65040;HTU21D;51606;45.000;38.612;2023-03-23T00:54:24;6.26;79.11
65040;HTU21D;51606;45.000;38.612;2023-03-23T00:56:51;6.26;79.07
65040;HTU21D;51606;45.000;38.612;2023-03-23T00:59:18;6.27;79.06
65040;HTU21D;51606;45.000;38.612;2023-03-23T01:01:46;6.24;79.08
65040;HTU21D;51606;45.000;38.612;2023-03-23T01:04:13;6.23;79.11
65040;HTU21D;51606;45.000;38.612;2023-03-23T01:06:42;6.23;79.10
65040;HTU21D;51606;45.000;38.612;2023-03-23T01:09:11;6.23;79.11
65040;HTU21D;51606;45.000;38.612;2023-03-23T01:11:44;6.21;79.14
65040;HTU21D;51606;45.000;38.612;2023-03-23T01:14:12;6.20;79.17
65040;HTU21D;51606;45.000;38.612;2023-03-23T01:16:39;6.17;79.22
65040;HTU21D;51606;45.000;38.612;2023-03-23T01:19:05;6.17;79.25
65040;HTU21D;51606;45.000;38.612;2023-03-23T01:21:32;6.16;79.22
65040;HTU21D;51606;45.000;38.612;2023-03-23T01:23:58;6.17;79.21
65040;HTU21D;51606;45.000;38.612;2023-03-23T01:26:26;6.17;79.17
65040;HTU21D;51606;45.000;38.612;2023-03-23T01:28:53;6.17;79.17
65040;HTU21D;51606;45.000;38.612;2023-03-23T01:31:23;6.17;79.17
65040;HTU21D;51606;45.000;38.612;2023-03-23T05:27:20;8.88;77.84
65040;HTU21D;51606;45.000;38.612;2023-03-23T05:29:49;8.98;77.82
65040;HTU21D;51606;45.000;38.612;2023-03-23T05:32:16;9.06;77.81
65040;HTU21D;51606;45.000;38.612;2023-03-23T05:34:44;9.18;77.82
65040;HTU21D;51606;45.000;38.612;2023-03-23T05:37:12;9.32;77.76
65040;HTU21D;51606;45.000;38.612;2023-03-23T05:39:46;9.47;77.69
65040;HTU21D;51606;45.000;38.612;2023-03-23T05:42:13;9.63;77.60
65040;HTU21D;51606;45.000;38.612;2023-03-23T05:45:05;9.78;77.46
65040;HTU21D;51606;45.000;38.612;2023-03-23T05:47:32;9.86;77.49
65040;HTU21D;51606;45.000;38.612;2023-03-23T05:50:06;9.98;77.53
65040;HTU21D;51606;45.000;38.612;2023-03-23T05:52:33;10.10;77.55
65040;HTU21D;51606;45.000;38.612;2023-03-23T05:55:04;10.20;77.53
65040;HTU21D;51606;45.000;38.612;2023-03-23T05:57:34;10.27;77.62
65040;HTU21D;51606;45.000;38.612;2023-03-23T06:00:05;10.39;77.60
65040;HTU21D;51606;45.000;38.612;2023-03-23T06:02:55;10.53;77.50
65040;HTU21D;51606;45.000;38.612;2023-03-23T06:05:30;10.63;77.50
65040;HTU21D;51606;45.000;38.612;2023-03-23T06:07:59;10.70;77.53
65040;HTU21D;51606;45.000;38.612;2023-03-23T06:10:26;10.80;77.57
65040;HTU21D;51606;45.000;38.612;2023-03-23T06:12:57;10.92;77.58
65040;HTU21D;51606;45.000;38.612;2023-03-23T06:15:34;11.02;77.50
65040;HTU21D;51606;45.000;38.612;2023-03-23T06:18:11;11.11;77.49
65040;HTU21D;51606;45.000;38.612;2023-03-23T06:20:55;11.22;77.49
65040;HTU21D;51606;45.000;38.612;2023-03-23T06:23:34;11.33;77.44
65040;HTU21D;51606;45.000;38.612;2023-03-23T06:26:05;11.43;77.40
65040;HTU21D;51606;45.000;38.612;2023-03-23T06:28:33;11.54;77.36
65040;HTU21D;51606;45.000;38.612;2023-03-23T06:31:04;11.64;77.35
65040;HTU21D;51606;45.000;38.612;2023-03-23T06:33:35;11.76;77.27
65040;HTU21D;51606;45.000;38.612;2023-03-23T06:36:25;11.90;77.21
65040;HTU21D;51606;45.000;38.612;2023-03-23T06:39:06;12.05;77.07
65040;HTU21D;51606;45.000;38.612;2023-03-23T06:41:49;12.22;76.99
65040;HTU21D;51606;45.000;38.612;2023-03-23T06:44:15;12.42;76.81
65040;HTU21D;51606;45.000;38.612;2023-03-23T06:46:42;12.60;76.63
65040;HTU21D;51606;45.000;38.612;2023-03-23T06:49:37;12.81;76.53
65040;HTU21D;51606;45.000;38.612;2023-03-23T06:52:24;12.96;76.31
65040;HTU21D;51606;45.000;38.612;2023-03-23T06:54:53;13.10;76.21
65040;HTU21D;51606;45.000;38.612;2023-03-23T06:57:20;13.24;76.08
65040;HTU21D;51606;45.000;38.612;2023-03-23T06:59:49;13.38;75.99
65040;HTU21D;51606;45.000;38.612;2023-03-23T07:02:15;13.49;75.92
65040;HTU21D;51606;45.000;38.612;2023-03-23T07:04:45;13.55;75.82
65040;HTU21D;51606;45.000;38.612;2023-03-23T07:07:20;13.68;75.76
65040;HTU21D;51606;45.000;38.612;2023-03-23T07:10:07;13.76;75.63
65040;HTU21D;51606;45.000;38.612;2023-03-23T07:12:35;13.90;75.58
65040;HTU21D;51606;45.000;38.612;2023-03-23T07:15:03;14.12;75.35
65040;HTU21D;51606;45.000;38.612;2023-03-23T07:17:31;14.34;75.09
65040;HTU21D;51606;45.000;38.612;2023-03-23T07:20:18;14.55;74.77
65040;HTU21D;51606;45.000;38.612;2023-03-23T07:22:45;14.69;74.60
65040;HTU21D;51606;45.000;38.612;2023-03-23T07:25:28;14.84;74.41
65040;HTU21D;51606;45.000;38.612;2023-03-23T07:27:59;15.22;74.12
65040;HTU21D;51606;45.000;38.612;2023-03-23T07:30:26;15.61;73.56
65040;HTU21D;51606;45.000;38.612;2023-03-23T07:32:56;16.06;73.15
65040;HTU21D;51606;45.000;38.612;2023-03-23T07:35:25;16.48;72.47
65040;HTU21D;51606;45.000;38.612;2023-03-23T07:38:02;16.80;72.03
65040;HTU21D;51606;45.000;38.612;2023-03-23T07:40:30;17.14;71.57
65040;HTU21D;51606;45.000;38.612;2023-03-23T07:43:05;17.23;70.41
65040;HTU21D;51606;45.000;38.612;2023-03-23T07:46:01;16.93;70.49
65040;HTU21D;51606;45.000;38.612;2023-03-23T07:48:47;17.07;70.49
65040;HTU21D;51606;45.000;38.612;2023-03-23T07:51:16;17.25;69.75
65040;HTU21D;51606;45.000;38.612;2023-03-23T07:53:47;17.37;69.74
65040;HTU21D;51606;45.000;38.612;2023-03-23T07:56:50;17.17;69.71
65040;HTU21D;51606;45.000;38.612;2023-03-23T07:59:39;16.88;70.24
65040;HTU21D;51606;45.000;38.612;2023-03-23T08:02:08;16.62;69.98
65040;HTU21D;51606;45.000;38.612;2023-03-23T08:04:48;16.45;70.39
65040;HTU21D;51606;45.000;38.612;2023-03-23T08:07:30;16.47;70.11
65040;HTU21D;51606;45.000;38.612;2023-03-23T08:09:59;16.62;70.03
65040;HTU21D;51606;45.000;38.612;2023-03-23T08:12:45;17.02;69.29
65040;HTU21D;51606;45.000;38.612;2023-03-23T08:15:31;17.15;68.50
65040;HTU21D;51606;45.000;38.612;2023-03-23T08:18:08;17.10;68.41
65040;HTU21D;51606;45.000;38.612;2023-03-23T08:20:53;16.85;68.26
65040;HTU21D;51606;45.000;38.612;2023-03-23T08:23:32;16.56;68.45
65040;HTU21D;51606;45.000;38.612;2023-03-23T08:26:14;16.33;68.54
65040;HTU21D;51606;45.000;38.612;2023-03-23T08:28:59;16.11;67.81
65040;HTU21D;51606;45.000;38.612;2023-03-23T08:31:44;15.82;68.52
65040;HTU21D;51606;45.000;38.612;2023-03-23T08:34:29;15.70;68.14
65040;HTU21D;51606;45.000;38.612;2023-03-23T08:37:05;15.53;68.68
65040;HTU21D;51606;45.000;38.612;2023-03-23T08:40:04;15.43;68.75
65040;HTU21D;51606;45.000;38.612;2023-03-23T08:42:54;15.39;68.72
65040;HTU21D;51606;45.000;38.612;2023-03-23T08:45:39;15.36;68.68
65040;HTU21D;51606;45.000;38.612;2023-03-23T08:48:24;15.22;68.77
65040;HTU21D;51606;45.000;38.612;2023-03-23T08:51:17;15.02;69.16
65040;HTU21D;51606;45.000;38.612;2023-03-23T08:54:07;14.97;69.24
65040;HTU21D;51606;45.000;38.612;2023-03-23T08:57:09;15.03;69.01
65040;HTU21D;51606;45.000;38.612;2023-03-23T08:59:53;15.16;68.49
65040;HTU21D;51606;45.000;38.612;2023-03-23T09:02:50;15.25;68.08
65040;HTU21D;51606;45.000;38.612;2023-03-23T09:05:24;15.33;67.90
65040;HTU21D;51606;45.000;38.612;2023-03-23T09:08:16;15.44;67.66
65040;HTU21D;51606;45.000;38.612;2023-03-23T09:10:43;15.59;67.53
65040;HTU21D;51606;45.000;38.612;2023-03-23T09:13:10;15.72;67.49
65040;HTU21D;51606;45.000;38.612;2023-03-23T09:15:36;15.83;67.25
65040;HTU21D;51606;45.000;38.612;2023-03-23T09:18:03;15.87;67.13
65040;HTU21D;51606;45.000;38.612;2023-03-23T09:20:30;15.91;67.20
65040;HTU21D;51606;45.000;38.612;2023-03-23T09:22:57;15.98;66.92
65040;HTU21D;51606;45.000;38.612;2023-03-23T09:25:26;16.01;66.82
65040;HTU21D;51606;45.000;38.612;2023-03-23T09:27:55;16.08;66.81
65040;HTU21D;51606;45.000;38.612;2023-03-23T09:30:25;16.18;66.53
65040;HTU21D;51606;45.000;38.612;2023-03-23T09:32:53;16.26;66.53
65040;HTU21D;51606;45.000;38.612;2023-03-23T09:35:20;16.32;66.27
65040;HTU21D;51606;45.000;38.612;2023-03-23T09:37:48;16.40;66.31
65040;HTU21D;51606;45.000;38.612;2023-03-23T09:40:24;16.50;66.30
65040;HTU21D;51606;45.000;38.612;2023-03-23T09:46:13;0.00;65.79
65040;HTU21D;51606;45.000;38.612;2023-03-23T09:49:16;17.06;65.55
65040;HTU21D;51606;45.000;38.612;2023-03-23T09:51:56;17.19;65.27
65040;HTU21D;51606;45.000;38.612;2023-03-23T09:54:39;17.29;65.08
65040;HTU21D;51606;45.000;38.612;2023-03-23T10:03:37;17.11;64.27
65040;HTU21D;51606;45.000;38.612;2023-03-23T10:06:07;17.02;64.23
65040;HTU21D;51606;45.000;38.612;2023-03-23T10:08:35;16.87;64.33
65040;HTU21D;51606;45.000;38.612;2023-03-23T10:11:43;16.75;64.45
65040;HTU21D;51606;45.000;38.612;2023-03-23T10:19:49;16.51;64.90
65040;HTU21D;51606;45.000;38.612;2023-03-23T10:22:29;16.43;65.35
65040;HTU21D;51606;45.000;38.612;2023-03-23T10:27:56;16.34;65.67
65040;HTU21D;51606;45.000;38.612;2023-03-23T10:30:35;16.37;65.79
65040;HTU21D;51606;45.000;38.612;2023-03-23T10:33:16;16.43;65.75
65040;HTU21D;51606;45.000;38.612;2023-03-23T10:35:55;16.44;65.74
65040;HTU21D;51606;45.000;38.612;2023-03-23T10:38:41;16.32;65.65
65040;HTU21D;51606;45.000;38.612;2023-03-23T10:41:18;16.19;65.88
65040;HTU21D;51606;45.000;38.612;2023-03-23T10:43:45;16.13;66.07
65040;HTU21D;51606;45.000;38.612;2023-03-23T10:46:45;16.08;66.23
65040;HTU21D;51606;45.000;38.612;2023-03-23T10:49:24;16.05;66.40
65040;HTU21D;51606;45.000;38.612;2023-03-23T10:55:18;16.02;66.61
65040;HTU21D;51606;45.000;38.612;2023-03-23T10:57:58;15.98;66.66
65040;HTU21D;51606;45.000;38.612;2023-03-23T11:00:26;15.96;66.75
65040;HTU21D;51606;45.000;38.612;2023-03-23T11:03:05;15.90;66.85
65040;HTU21D;51606;45.000;38.612;2023-03-23T11:05:43;15.82;66.98
65040;HTU21D;51606;45.000;38.612;2023-03-23T11:08:22;15.74;67.13
65040;HTU21D;51606;45.000;38.612;2023-03-23T11:10:52;15.69;67.26
65040;HTU21D;51606;45.000;38.612;2023-03-23T11:13:22;15.65;67.36
65040;HTU21D;51606;45.000;38.612;2023-03-23T11:15:51;15.57;67.66
65040;HTU21D;51606;45.000;38.612;2023-03-23T11:18:42;15.31;68.49
65040;HTU21D;51606;45.000;38.612;2023-03-23T11:21:11;15.19;69.01
65040;HTU21D;51606;45.000;38.612;2023-03-23T11:23:41;15.27;69.08
65040;HTU21D;51606;45.000;38.612;2023-03-23T11:37:35;16.29;67.26
65040;HTU21D;51606;45.000;38.612;2023-03-23T11:42:44;16.62;66.90
65040;HTU21D;51606;45.000;38.612;2023-03-23T11:47:59;16.80;66.65
65040;HTU21D;51606;45.000;38.612;2023-03-23T11:50:31;16.81;66.59
65040;HTU21D;51606;45.000;38.612;2023-03-23T11:53:22;16.80;66.45
65040;HTU21D;51606;45.000;38.612;2023-03-23T11:56:14;16.79;66.58
65040;HTU21D;51606;45.000;38.612;2023-03-23T11:58:42;16.75;66.63
65040;HTU21D;51606;45.000;38.612;2023-03-23T12:12:13;16.59;67.05
65040;HTU21D;51606;45.000;38.612;2023-03-23T12:25:46;16.48;67.14
65040;HTU21D;51606;45.000;38.612;2023-03-23T12:33:54;16.59;67.11
65040;HTU21D;51606;45.000;38.612;2023-03-23T12:47:46;16.78;66.97
65040;HTU21D;51606;45.000;38.612;2023-03-23T12:50:27;16.71;67.04
65040;HTU21D;51606;45.000;38.612;2023-03-23T12:53:17;16.62;67.09
65040;HTU21D;51606;45.000;38.612;2023-03-23T12:56:04;16.54;67.28
65040;HTU21D;51606;45.000;38.612;2023-03-23T12:58:36;16.55;67.42
65040;HTU21D;51606;45.000;38.612;2023-03-23T13:01:07;16.61;67.25
65040;HTU21D;51606;45.000;38.612;2023-03-23T13:03:45;16.63;67.30
65040;HTU21D;51606;45.000;38.612;2023-03-23T13:06:36;16.70;67.35
65040;HTU21D;51606;45.000;38.612;2023-03-23T13:09:17;16.79;67.30
65040;HTU21D;51606;45.000;38.612;2023-03-23T13:11:45;16.89;67.13
65040;HTU21D;51606;45.000;38.612;2023-03-23T13:20:20;17.11;67.09
65040;HTU21D;51606;45.000;38.612;2023-03-23T13:25:51;17.26;66.96
65040;HTU21D;51606;45.000;38.612;2023-03-23T13:28:20;17.30;66.78
65040;HTU21D;51606;45.000;38.612;2023-03-23T13:31:11;17.22;66.91
65040;HTU21D;51606;45.000;38.612;2023-03-23T13:33:39;17.13;67.04
65040;HTU21D;51606;45.000;38.612;2023-03-23T13:36:12;17.09;67.17
65040;HTU21D;51606;45.000;38.612;2023-03-23T13:38:45;17.11;67.13
65040;HTU21D;51606;45.000;38.612;2023-03-23T13:41:13;17.09;67.07
65040;HTU21D;51606;45.000;38.612;2023-03-23T13:43:42;17.10;67.13
65040;HTU21D;51606;45.000;38.612;2023-03-23T13:48:48;17.06;67.15
65040;HTU21D;51606;45.000;38.612;2023-03-23T13:51:51;17.01;67.27
65040;HTU21D;51606;45.000;38.612;2023-03-23T13:54:23;16.94;67.34
65040;HTU21D;51606;45.000;38.612;2023-03-23T13:57:01;16.85;67.54
65040;HTU21D;51606;45.000;38.612;2023-03-23T13:59:46;16.73;67.72
65040;HTU21D;51606;45.000;38.612;2023-03-23T14:05:11;16.50;68.06
65040;HTU21D;51606;45.000;38.612;2023-03-23T14:07:59;16.41;68.20
65040;HTU21D;51606;45.000;38.612;2023-03-23T14:10:38;16.34;68.32
65040;HTU21D;51606;45.000;38.612;2023-03-23T14:13:10;16.26;68.43
65040;HTU21D;51606;45.000;38.612;2023-03-23T14:15:44;16.20;68.55
65040;HTU21D;51606;45.000;38.612;2023-03-23T14:18:15;16.14;68.65
65040;HTU21D;51606;45.000;38.612;2023-03-23T14:20:43;16.08;68.75
65040;HTU21D;51606;45.000;38.612;2023-03-23T14:23:15;16.04;68.82
65040;HTU21D;51606;45.000;38.612;2023-03-23T14:25:43;16.00;68.89
65040;HTU21D;51606;45.000;38.612;2023-03-23T14:28:18;15.96;68.95
65040;HTU21D;51606;45.000;38.612;2023-03-23T14:30:44;15.92;69.00
65040;HTU21D;51606;45.000;38.612;2023-03-23T14:33:12;15.89;69.11
65040;HTU21D;51606;45.000;38.612;2023-03-23T14:35:42;15.85;69.20
65040;HTU21D;51606;45.000;38.612;2023-03-23T14:38:21;15.82;69.27
65040;HTU21D;51606;45.000;38.612;2023-03-23T14:40:49;15.77;69.31
65040;HTU21D;51606;45.000;38.612;2023-03-23T14:43:18;15.76;69.37
65040;HTU21D;51606;45.000;38.612;2023-03-23T14:45:51;15.72;69.44
65040;HTU21D;51606;45.000;38.612;2023-03-23T14:48:18;15.67;69.52
65040;HTU21D;51606;45.000;38.612;2023-03-23T14:51:00;15.62;69.65
65040;HTU21D;51606;45.000;38.612;2023-03-23T14:53:38;15.58;69.73
65040;HTU21D;51606;45.000;38.612;2023-03-23T14:56:16;15.53;69.83
65040;HTU21D;51606;45.000;38.612;2023-03-23T14:58:48;15.48;69.90
65040;HTU21D;51606;45.000;38.612;2023-03-23T15:01:19;15.42;70.00
65040;HTU21D;51606;45.000;38.612;2023-03-23T15:03:53;15.36;70.11
65040;HTU21D;51606;45.000;38.612;2023-03-23T15:06:23;15.31;70.17
65040;HTU21D;51606;45.000;38.612;2023-03-23T15:08:54;15.26;70.24
65040;HTU21D;51606;45.000;38.612;2023-03-23T15:11:27;15.21;70.32
65040;HTU21D;51606;45.000;38.612;2023-03-23T15:13:57;15.13;70.40
65040;HTU21D;51606;45.000;38.612;2023-03-23T15:16:27;15.08;70.52
65040;HTU21D;51606;45.000;38.612;2023-03-23T15:18:59;15.01;70.64
65040;HTU21D;51606;45.000;38.612;2023-03-23T15:21:34;14.91;70.80
65040;HTU21D;51606;45.000;38.612;2023-03-23T15:24:17;14.80;70.91
65040;HTU21D;51606;45.000;38.612;2023-03-23T15:26:45;14.70;71.03
65040;HTU21D;51606;45.000;38.612;2023-03-23T15:29:20;14.60;71.23
65040;HTU21D;51606;45.000;38.612;2023-03-23T15:31:54;14.49;71.39
65040;HTU21D;51606;45.000;38.612;2023-03-23T15:34:25;14.37;71.53
65040;HTU21D;51606;45.000;38.612;2023-03-23T15:36:57;14.27;71.69
65040;HTU21D;51606;45.000;38.612;2023-03-23T15:39:24;14.17;71.80
65040;HTU21D;51606;45.000;38.612;2023-03-23T15:41:53;14.08;71.91
65040;HTU21D;51606;45.000;38.612;2023-03-23T15:44:32;14.03;71.96
65040;HTU21D;51606;45.000;38.612;2023-03-23T15:47:18;13.99;72.00
65040;HTU21D;51606;45.000;38.612;2023-03-23T15:49:47;13.94;71.95
65040;HTU21D;51606;45.000;38.612;2023-03-23T15:52:25;13.88;71.96
65040;HTU21D;51606;45.000;38.612;2023-03-23T15:54:51;13.81;72.03
65040;HTU21D;51606;45.000;38.612;2023-03-23T15:57:17;13.76;72.10
65040;HTU21D;51606;45.000;38.612;2023-03-23T15:59:44;13.67;72.19
65040;HTU21D;51606;45.000;38.612;2023-03-23T16:02:20;13.59;72.33
65040;HTU21D;51606;45.000;38.612;2023-03-23T16:04:49;13.48;72.44
65040;HTU21D;51606;45.000;38.612;2023-03-23T16:07:18;13.39;72.59
65040;HTU21D;51606;45.000;38.612;2023-03-23T16:09:45;13.32;72.69
65040;HTU21D;51606;45.000;38.612;2023-03-23T16:12:11;13.27;72.76
65040;HTU21D;51606;45.000;38.612;2023-03-23T16:14:39;13.23;72.77
65040;HTU21D;51606;45.000;38.612;2023-03-23T16:17:10;13.16;72.90
65040;HTU21D;51606;45.000;38.612;2023-03-23T16:19:38;13.01;73.04
65040;HTU21D;51606;45.000;38.612;2023-03-23T16:22:05;12.90;73.22
65040;HTU21D;51606;45.000;38.612;2023-03-23T16:24:31;12.77;73.38
65040;HTU21D;51606;45.000;38.612;2023-03-23T16:26:57;12.66;73.54
65040;HTU21D;51606;45.000;38.612;2023-03-23T16:29:24;12.57;73.65
65040;HTU21D;51606;45.000;38.612;2023-03-23T16:31:50;12.50;73.71
65040;HTU21D;51606;45.000;38.612;2023-03-23T16:34:17;12.47;73.70
65040;HTU21D;51606;45.000;38.612;2023-03-23T16:36:43;12.45;73.70
65040;HTU21D;51606;45.000;38.612;2023-03-23T16:39:13;12.42;73.73
65040;HTU21D;51606;45.000;38.612;2023-03-23T16:41:45;12.36;73.72
65040;HTU21D;51606;45.000;38.612;2023-03-23T16:44:11;12.32;73.77
65040;HTU21D;51606;45.000;38.612;2023-03-23T16:46:38;12.29;73.83
65040;HTU21D;51606;45.000;38.612;2023-03-23T16:49:04;12.37;73.72
65040;HTU21D;51606;45.000;38.612;2023-03-23T16:51:31;12.49;73.51
65040;HTU21D;51606;45.000;38.612;2023-03-23T16:53:57;12.55;73.35
65040;HTU21D;51606;45.000;38.612;2023-03-23T16:56:23;12.60;73.29
65040;HTU21D;51606;45.000;38.612;2023-03-23T16:58:50;12.59;73.27
65040;HTU21D;51606;45.000;38.612;2023-03-23T17:01:16;12.56;73.36
65040;HTU21D;51606;45.000;38.612;2023-03-23T17:03:43;12.48;73.48
65040;HTU21D;51606;45.000;38.612;2023-03-23T17:06:09;12.40;73.66
65040;HTU21D;51606;45.000;38.612;2023-03-23T17:08:36;12.31;73.81
65040;HTU21D;51606;45.000;38.612;2023-03-23T17:11:02;12.22;73.96
65040;HTU21D;51606;45.000;38.612;2023-03-23T17:13:29;12.14;74.09
65040;HTU21D;51606;45.000;38.612;2023-03-23T17:15:55;12.07;74.18
65040;HTU21D;51606;45.000;38.612;2023-03-23T17:18:23;12.03;74.24
65040;HTU21D;51606;45.000;38.612;2023-03-23T17:20:52;12.04;74.25
65040;HTU21D;51606;45.000;38.612;2023-03-23T17:23:18;12.05;74.20
65040;HTU21D;51606;45.000;38.612;2023-03-23T17:25:46;12.06;74.15
65040;HTU21D;51606;45.000;38.612;2023-03-23T17:28:13;12.06;74.14
65040;HTU21D;51606;45.000;38.612;2023-03-23T17:30:43;12.04;74.23
65040;HTU21D;51606;45.000;38.612;2023-03-23T17:33:11;12.02;74.27
65040;HTU21D;51606;45.000;38.612;2023-03-23T17:46:39;11.59;74.51
65040;HTU21D;51606;45.000;38.612;2023-03-23T17:49:05;11.46;74.78
65040;HTU21D;51606;45.000;38.612;2023-03-23T17:51:32;11.38;74.93
65040;HTU21D;51606;45.000;38.612;2023-03-23T17:53:59;11.29;75.05
65040;HTU21D;51606;45.000;38.612;2023-03-23T17:56:25;11.24;75.12
65040;HTU21D;51606;45.000;38.612;2023-03-23T17:58:51;11.19;75.18
65040;HTU21D;51606;45.000;38.612;2023-03-23T18:01:18;11.16;75.21
65040;HTU21D;51606;45.000;38.612;2023-03-23T18:03:44;11.15;75.23
65040;HTU21D;51606;45.000;38.612;2023-03-23T18:06:11;11.15;75.19
65040;HTU21D;51606;45.000;38.612;2023-03-23T18:08:38;11.17;75.16
65040;HTU21D;51606;45.000;38.612;2023-03-23T18:11:05;11.23;75.09
65040;HTU21D;51606;45.000;38.612;2023-03-23T18:13:33;11.28;75.01
65040;HTU21D;51606;45.000;38.612;2023-03-23T18:16:00;11.29;74.96
65040;HTU21D;51606;45.000;38.612;2023-03-23T18:18:29;11.32;74.96
65040;HTU21D;51606;45.000;38.612;2023-03-23T18:21:01;11.37;74.93
65040;HTU21D;51606;45.000;38.612;2023-03-23T18:23:28;11.41;74.88
65040;HTU21D;51606;45.000;38.612;2023-03-23T18:25:57;11.43;74.84
65040;HTU21D;51606;45.000;38.612;2023-03-23T18:28:23;11.43;74.86
65040;HTU21D;51606;45.000;38.612;2023-03-23T18:30:50;11.43;74.88
65040;HTU21D;51606;45.000;38.612;2023-03-23T18:33:19;11.42;74.92
65040;HTU21D;51606;45.000;38.612;2023-03-23T18:35:46;11.40;74.97
65040;HTU21D;51606;45.000;38.612;2023-03-23T18:38:13;11.38;75.03
65040;HTU21D;51606;45.000;38.612;2023-03-23T18:40:43;11.37;75.12
65040;HTU21D;51606;45.000;38.612;2023-03-23T18:43:11;11.33;75.17
65040;HTU21D;51606;45.000;38.612;2023-03-23T18:45:38;11.28;75.24
65040;HTU21D;51606;45.000;38.612;2023-03-23T18:48:05;11.28;75.28
65040;HTU21D;51606;45.000;38.612;2023-03-23T18:50:32;11.27;75.32
65040;HTU21D;51606;45.000;38.612;2023-03-23T18:52:58;11.26;75.36
65040;HTU21D;51606;45.000;38.612;2023-03-23T18:55:25;11.23;75.38
65040;HTU21D;51606;45.000;38.612;2023-03-23T18:57:51;11.23;75.41
65040;HTU21D;51606;45.000;38.612;2023-03-23T19:00:19;11.22;75.43
65040;HTU21D;51606;45.000;38.612;2023-03-23T19:02:46;11.20;75.45
65040;HTU21D;51606;45.000;38.612;2023-03-23T19:05:14;11.19;75.44
65040;HTU21D;51606;45.000;38.612;2023-03-23T19:07:41;11.20;75.43
65040;HTU21D;51606;45.000;38.612;2023-03-23T19:10:08;11.18;75.45
65040;HTU21D;51606;45.000;38.612;2023-03-23T19:12:35;11.16;75.47
65040;HTU21D;51606;45.000;38.612;2023-03-23T19:15:01;11.16;75.50
65040;HTU21D;51606;45.000;38.612;2023-03-23T19:17:27;11.14;75.51
65040;HTU21D;51606;45.000;38.612;2023-03-23T19:19:53;11.13;75.57
65040;HTU21D;51606;45.000;38.612;2023-03-23T19:22:20;11.11;75.60
65040;HTU21D;51606;45.000;38.612;2023-03-23T19:24:46;11.10;75.67
65040;HTU21D;51606;45.000;38.612;2023-03-23T19:27:13;11.08;75.71
65040;HTU21D;51606;45.000;38.612;2023-03-23T19:29:39;11.07;75.74
65040;HTU21D;51606;45.000;38.612;2023-03-23T19:32:06;11.05;75.77
65040;HTU21D;51606;45.000;38.612;2023-03-23T19:34:32;11.05;75.78
65040;HTU21D;51606;45.000;38.612;2023-03-23T19:36:58;11.05;75.79
65040;HTU21D;51606;45.000;38.612;2023-03-23T19:39:25;11.05;75.79
65040;HTU21D;51606;45.000;38.612;2023-03-23T19:41:51;11.04;75.76
65040;HTU21D;51606;45.000;38.612;2023-03-23T19:44:19;11.07;75.75
65040;HTU21D;51606;45.000;38.612;2023-03-23T19:46:46;11.04;75.74
65040;HTU21D;51606;45.000;38.612;2023-03-23T19:49:15;11.07;75.74
65040;HTU21D;51606;45.000;38.612;2023-03-23T19:51:42;11.08;75.73
65040;HTU21D;51606;45.000;38.612;2023-03-23T19:54:08;11.09;75.75
65040;HTU21D;51606;45.000;38.612;2023-03-23T19:56:35;11.08;75.76
65040;HTU21D;51606;45.000;38.612;2023-03-23T19:59:02;11.07;75.79
65040;HTU21D;51606;45.000;38.612;2023-03-23T20:01:28;11.05;75.82
65040;HTU21D;51606;45.000;38.612;2023-03-23T20:03:54;11.08;75.81
65040;HTU21D;51606;45.000;38.612;2023-03-23T20:06:22;11.10;75.79
65040;HTU21D;51606;45.000;38.612;2023-03-23T20:08:48;11.11;75.78
65040;HTU21D;51606;45.000;38.612;2023-03-23T20:11:17;11.11;75.77
65040;HTU21D;51606;45.000;38.612;2023-03-23T20:13:44;11.13;75.75
65040;HTU21D;51606;45.000;38.612;2023-03-23T20:16:11;11.15;75.72
65040;HTU21D;51606;45.000;38.612;2023-03-23T20:18:38;11.15;75.76
65040;HTU21D;51606;45.000;38.612;2023-03-23T20:21:07;11.16;75.80
65040;HTU21D;51606;45.000;38.612;2023-03-23T20:23:34;11.17;75.85
65040;HTU21D;51606;45.000;38.612;2023-03-23T20:26:08;11.18;75.84
65040;HTU21D;51606;45.000;38.612;2023-03-23T20:28:35;11.19;75.79
65040;HTU21D;51606;45.000;38.612;2023-03-23T20:31:12;11.18;75.83
65040;HTU21D;51606;45.000;38.612;2023-03-23T20:33:40;11.19;75.89
65040;HTU21D;51606;45.000;38.612;2023-03-23T20:36:07;11.16;75.99
65040;HTU21D;51606;45.000;38.612;2023-03-23T20:38:34;11.16;76.08
65040;HTU21D;51606;45.000;38.612;2023-03-23T20:41:03;11.13;76.12
65040;HTU21D;51606;45.000;38.612;2023-03-23T20:43:31;11.10;76.23
65040;HTU21D;51606;45.000;38.612;2023-03-23T20:46:00;11.10;76.30
65040;HTU21D;51606;45.000;38.612;2023-03-23T20:48:28;11.09;76.34
65040;HTU21D;51606;45.000;38.612;2023-03-23T20:50:56;11.12;76.34
65040;HTU21D;51606;45.000;38.612;2023-03-23T20:53:24;11.18;76.28
65040;HTU21D;51606;45.000;38.612;2023-03-23T20:55:55;11.22;76.23
65040;HTU21D;51606;45.000;38.612;2023-03-23T20:58:24;11.24;76.20
65040;HTU21D;51606;45.000;38.612;2023-03-23T21:00:51;11.27;76.16
65040;HTU21D;51606;45.000;38.612;2023-03-23T21:03:26;11.26;76.13
65040;HTU21D;51606;45.000;38.612;2023-03-23T21:05:53;11.27;76.17
65040;HTU21D;51606;45.000;38.612;2023-03-23T21:08:20;11.26;76.25
65040;HTU21D;51606;45.000;38.612;2023-03-23T21:10:47;11.27;76.32